createdAt,value
2017-12-10T00:00:55.069Z,1
2017-12-10T00:01:53.787Z,1.1
2017-12-10T00:02:53.119Z,1
2017-12-10T00:03:51.946Z,1
2017-12-10T00:04:50.661Z,1
2017-12-10T00:05:50.099Z,1
2017-12-10T00:06:48.609Z,1
2017-12-10T00:07:47.846Z,1
2017-12-10T00:08:46.674Z,1
2017-12-10T00:09:45.287Z,1
2017-12-10T00:10:44.533Z,1
2017-12-10T00:11:43.496Z,1
2017-12-10T00:12:42.711Z,1
2017-12-10T00:13:41.648Z,1
2017-12-10T00:14:40.468Z,1
2017-12-10T00:15:39.698Z,1
2017-12-10T00:16:38.409Z,1.1
2017-12-10T00:17:37.727Z,1
2017-12-10T00:18:36.441Z,1
2017-12-10T00:19:35.655Z,1.1
2017-12-10T00:20:34.367Z,1.1
2017-12-10T00:21:33.483Z,1.1
2017-12-10T00:22:04.023Z,1.1
2017-12-10T00:22:34.666Z,1.1
2017-12-10T00:23:31.265Z,1.1
2017-12-10T00:24:30.083Z,1.1
2017-12-10T00:25:28.981Z,1.1
2017-12-10T00:26:28.198Z,1.1
2017-12-10T00:27:27.204Z,1.1
2017-12-10T00:28:26.121Z,1.1
2017-12-10T00:29:25.042Z,1
2017-12-10T00:30:24.262Z,1
2017-12-10T00:31:23.082Z,1
2017-12-10T00:31:53.320Z,1
2017-12-10T00:32:23.564Z,1
2017-12-10T00:32:53.706Z,1
2017-12-10T00:33:24.385Z,1
2017-12-10T00:33:55.024Z,1
2017-12-10T00:34:25.673Z,1
2017-12-10T00:34:55.800Z,1
2017-12-10T00:36:17.767Z,0.9
2017-12-10T00:37:16.981Z,0.9
2017-12-10T00:38:15.692Z,0.9
2017-12-10T00:39:14.909Z,0.9
2017-12-10T00:40:13.730Z,0.9
2017-12-10T00:41:12.449Z,0.8
2017-12-10T00:41:43.083Z,0.8
2017-12-10T00:42:13.405Z,0.9
2017-12-10T00:42:43.940Z,0.9
2017-12-10T00:44:09.829Z,0.8
2017-12-10T00:45:08.562Z,0.8
2017-12-10T00:46:07.881Z,0.8
2017-12-10T00:47:06.596Z,0.8
2017-12-10T00:49:04.481Z,0.8
2017-12-10T00:50:03.600Z,0.7
2017-12-10T00:51:02.720Z,0.7
2017-12-10T00:52:01.333Z,0.7
2017-12-10T00:53:00.660Z,0.7
2017-12-10T00:53:59.490Z,0.7
2017-12-10T00:54:58.312Z,0.7
2017-12-10T00:55:57.491Z,0.7
2017-12-10T00:56:56.211Z,0.7
2017-12-10T00:57:55.436Z,0.7
2017-12-10T00:58:54.148Z,0.7
2017-12-10T00:59:52.866Z,0.7
2017-12-10T01:00:52.084Z,0.7
2017-12-10T01:01:51.404Z,0.7
2017-12-10T01:02:50.123Z,0.7
2017-12-10T01:03:48.841Z,0.6
2017-12-10T01:04:48.060Z,0.7
2017-12-10T01:05:47.188Z,0.6
2017-12-10T01:06:45.904Z,0.7
2017-12-10T01:07:44.797Z,0.7
2017-12-10T01:08:43.722Z,0.6
2017-12-10T01:09:42.936Z,0.6
2017-12-10T01:10:41.806Z,0.6
2017-12-10T01:11:40.913Z,0.6
2017-12-10T01:12:40.022Z,0.6
2017-12-10T01:13:10.263Z,0.6
2017-12-10T01:13:40.797Z,0.6
2017-12-10T01:14:11.318Z,0.6
2017-12-10T01:14:41.885Z,0.7
2017-12-10T01:15:11.911Z,0.7
2017-12-10T01:16:35.796Z,0.6
2017-12-10T01:17:34.623Z,0.7
2017-12-10T01:18:33.525Z,0.7
2017-12-10T01:19:32.233Z,0.7
2017-12-10T01:20:31.448Z,0.7
2017-12-10T01:21:30.556Z,0.7
2017-12-10T01:22:29.379Z,0.6
2017-12-10T01:23:28.115Z,0.6
2017-12-10T01:23:58.545Z,0.6
2017-12-10T01:24:28.758Z,0.6
2017-12-10T01:24:59.392Z,0.6
2017-12-10T01:25:29.721Z,0.6
2017-12-10T01:26:25.416Z,0.6
2017-12-10T01:27:24.232Z,0.6
2017-12-10T01:28:23.173Z,0.6
2017-12-10T01:29:22.006Z,0.6
2017-12-10T01:30:21.448Z,0.6
2017-12-10T01:31:19.970Z,0.6
2017-12-10T01:32:18.796Z,0.6
2017-12-10T01:33:18.235Z,0.6
2017-12-10T01:35:16.047Z,0.6
2017-12-10T01:36:14.766Z,0.6
2017-12-10T01:37:13.990Z,0.6
2017-12-10T01:38:12.783Z,0.6
2017-12-10T01:39:11.607Z,0.5
2017-12-10T01:40:10.832Z,0.5
2017-12-10T01:41:09.944Z,0.6
2017-12-10T01:42:08.662Z,0.6
2017-12-10T01:43:07.982Z,0.5
2017-12-10T01:44:06.799Z,0.6
2017-12-10T01:45:05.511Z,0.5
2017-12-10T01:46:04.731Z,0.5
2017-12-10T01:47:03.556Z,0.5
2017-12-10T01:48:02.679Z,0.5
2017-12-10T01:49:01.292Z,0.4
2017-12-10T01:49:31.732Z,0.4
2017-12-10T01:50:02.050Z,0.5
2017-12-10T01:50:59.376Z,0.4
2017-12-10T01:51:58.098Z,0.4
2017-12-10T01:52:57.531Z,0.4
2017-12-10T01:53:56.344Z,0.4
2017-12-10T01:55:54.153Z,0.4
2017-12-10T01:56:53.475Z,0.4
2017-12-10T01:57:52.193Z,0.4
2017-12-10T01:58:51.022Z,0.3
2017-12-10T02:00:49.332Z,0.3
2017-12-10T02:01:48.053Z,0.3
2017-12-10T02:02:47.163Z,0.3
2017-12-10T02:03:45.879Z,0.2
2017-12-10T02:04:44.814Z,0.2
2017-12-10T02:06:42.815Z,0.2
2017-12-10T02:07:41.749Z,0.2
2017-12-10T02:08:40.616Z,0.2
2017-12-10T02:10:38.711Z,0.2
2017-12-10T02:11:37.659Z,0.2
2017-12-10T02:12:36.671Z,0.2
2017-12-10T02:13:35.378Z,0.1
2017-12-10T02:14:34.699Z,0.2
2017-12-10T02:15:33.306Z,0.1
2017-12-10T02:16:32.431Z,0.1
2017-12-10T02:17:31.427Z,0.1
2017-12-10T02:18:30.138Z,0.1
2017-12-10T02:19:29.253Z,0.1
2017-12-10T02:20:27.968Z,0.1
2017-12-10T02:21:27.448Z,0.1
2017-12-10T02:22:26.158Z,0.1
2017-12-10T02:23:25.161Z,0.1
2017-12-10T02:24:23.882Z,0.1
2017-12-10T02:25:23.226Z,0.1
2017-12-10T02:26:21.966Z,0.1
2017-12-10T02:27:20.827Z,0.1
2017-12-10T02:28:19.937Z,0.1
2017-12-10T02:29:19.046Z,0.1
2017-12-10T02:30:17.767Z,0.1
2017-12-10T02:32:15.589Z,0.1
2017-12-10T02:33:14.930Z,0.1
2017-12-10T02:34:13.754Z,0.1
2017-12-10T02:35:12.479Z,0
2017-12-10T02:36:11.807Z,0.1
2017-12-10T02:37:10.534Z,0
2017-12-10T02:38:09.372Z,0
2017-12-10T02:39:08.383Z,0
2017-12-10T02:40:07.610Z,0.1
2017-12-10T02:41:06.330Z,0
2017-12-10T02:42:05.560Z,0
2017-12-10T02:43:04.288Z,0
2017-12-10T02:44:03.230Z,0
2017-12-10T02:45:02.072Z,0
2017-12-10T02:46:00.893Z,0
2017-12-10T02:47:00.118Z,0
2017-12-10T02:47:58.957Z,0
2017-12-10T02:48:29.601Z,0
2017-12-10T02:49:00.024Z,0
2017-12-10T02:49:30.449Z,0
2017-12-10T02:50:00.875Z,0
2017-12-10T02:50:56.063Z,0
2017-12-10T02:51:54.770Z,0
2017-12-10T02:53:52.766Z,0
2017-12-10T02:54:51.702Z,0
2017-12-10T02:55:51.039Z,0
2017-12-10T02:56:49.645Z,0
2017-12-10T02:57:48.579Z,0
2017-12-10T02:58:47.404Z,0
2017-12-10T02:59:46.417Z,0
2017-12-10T03:00:45.652Z,0
2017-12-10T03:02:43.249Z,0
2017-12-10T03:03:42.365Z,0
2017-12-10T03:04:41.292Z,0
2017-12-10T03:05:40.115Z,0
2017-12-10T03:06:39.227Z,0
2017-12-10T03:07:37.891Z,0
2017-12-10T03:08:37.218Z,0
2017-12-10T03:09:35.830Z,0
2017-12-10T03:10:35.053Z,0
2017-12-10T03:11:33.765Z,0
2017-12-10T03:12:33.200Z,0
2017-12-10T03:13:32.018Z,0
2017-12-10T03:14:30.744Z,0
2017-12-10T03:15:29.641Z,0
2017-12-10T03:16:28.746Z,0
2017-12-10T03:17:27.562Z,0
2017-12-10T03:18:26.784Z,0
2017-12-10T03:19:25.607Z,0
2017-12-10T03:20:24.716Z,0
2017-12-10T03:21:23.328Z,0
2017-12-10T03:22:22.548Z,0
2017-12-10T03:23:21.378Z,0
2017-12-10T03:24:20.198Z,0
2017-12-10T03:25:19.410Z,0
2017-12-10T03:26:18.344Z,0
2017-12-10T03:27:17.173Z,0
2017-12-10T03:28:16.112Z,0
2017-12-10T03:29:15.330Z,0
2017-12-10T03:30:14.231Z,0
2017-12-10T03:31:13.177Z,0
2017-12-10T03:32:12.123Z,0
2017-12-10T03:33:10.854Z,0
2017-12-10T03:34:09.795Z,0
2017-12-10T03:35:09.132Z,0
2017-12-10T03:36:07.959Z,0
2017-12-10T03:37:06.678Z,0
2017-12-10T03:38:05.891Z,0
2017-12-10T03:39:04.599Z,0
2017-12-10T03:40:03.819Z,0
2017-12-10T03:41:02.531Z,0
2017-12-10T03:42:01.465Z,0
2017-12-10T03:43:00.801Z,0
2017-12-10T03:43:59.311Z,0
2017-12-10T03:44:58.633Z,0.1
2017-12-10T03:45:57.248Z,0.1
2017-12-10T03:46:56.578Z,0.1
2017-12-10T03:47:55.507Z,0.1
2017-12-10T03:48:54.425Z,0.1
2017-12-10T03:49:53.252Z,0.1
2017-12-10T03:50:51.966Z,0
2017-12-10T03:51:51.288Z,0
2017-12-10T03:52:49.987Z,0
2017-12-10T03:53:49.083Z,0
2017-12-10T03:54:48.088Z,0
2017-12-10T03:55:46.900Z,0
2017-12-10T03:56:46.103Z,0
2017-12-10T03:57:44.804Z,0
2017-12-10T03:58:43.688Z,0
2017-12-10T03:59:42.993Z,0
2017-12-10T04:00:41.910Z,0
2017-12-10T04:01:40.830Z,0
2017-12-10T04:02:39.423Z,0
2017-12-10T04:03:38.418Z,0
2017-12-10T04:04:37.412Z,0
2017-12-10T04:05:36.722Z,0
2017-12-10T04:06:06.742Z,0
2017-12-10T04:06:37.158Z,0
2017-12-10T04:07:34.348Z,0
2017-12-10T04:09:32.328Z,0
2017-12-10T04:10:31.537Z,0
2017-12-10T04:11:30.455Z,0
2017-12-10T04:12:29.267Z,0
2017-12-10T04:13:28.187Z,0
2017-12-10T04:14:27.295Z,0
2017-12-10T04:15:25.794Z,0.1
2017-12-10T04:15:56.420Z,0.1
2017-12-10T04:16:26.652Z,0
2017-12-10T04:16:56.880Z,0
2017-12-10T04:17:27.396Z,0
2017-12-10T04:18:23.179Z,0.1
2017-12-10T04:19:21.889Z,0
2017-12-10T04:20:20.692Z,0
2017-12-10T04:21:20.074Z,0
2017-12-10T04:22:18.774Z,0
2017-12-10T04:23:17.586Z,0
2017-12-10T04:24:16.690Z,0
2017-12-10T04:25:15.683Z,0
2017-12-10T04:26:14.548Z,0
2017-12-10T04:27:13.755Z,0
2017-12-10T04:28:12.564Z,0.1
2017-12-10T04:29:11.273Z,0.1
2017-12-10T04:30:10.419Z,0.1
2017-12-10T04:31:09.522Z,0.1
2017-12-10T04:32:08.327Z,0
2017-12-10T04:33:07.245Z,0
2017-12-10T04:34:06.060Z,0
2017-12-10T04:35:05.377Z,0
2017-12-10T04:36:04.075Z,0
2017-12-10T04:37:02.779Z,0
2017-12-10T04:38:02.197Z,0
2017-12-10T04:39:00.898Z,0
2017-12-10T04:39:59.708Z,0
2017-12-10T04:40:58.916Z,0
2017-12-10T04:41:58.023Z,0
2017-12-10T04:42:56.729Z,0
2017-12-10T04:43:55.937Z,0
2017-12-10T04:44:54.633Z,0
2017-12-10T04:45:24.940Z,0
2017-12-10T04:45:55.461Z,0
2017-12-10T04:46:26.092Z,0
2017-12-10T04:46:56.618Z,0
2017-12-10T04:47:26.923Z,0
2017-12-10T04:48:50.502Z,0
2017-12-10T04:49:49.707Z,0
2017-12-10T04:50:48.413Z,0
2017-12-10T04:51:47.619Z,0
2017-12-10T04:52:46.180Z,0
2017-12-10T04:53:45.274Z,0
2017-12-10T04:54:44.472Z,0
2017-12-10T04:55:43.068Z,0
2017-12-10T04:56:13.691Z,0
2017-12-10T04:56:44.098Z,0
2017-12-10T04:57:14.621Z,0
2017-12-10T04:57:45.148Z,0
2017-12-10T04:58:15.282Z,0
2017-12-10T04:59:39.207Z,0
2017-12-10T05:00:37.905Z,0
2017-12-10T05:01:37.122Z,0
2017-12-10T05:02:35.720Z,0
2017-12-10T05:03:34.920Z,0
2017-12-10T05:04:34.019Z,0
2017-12-10T05:05:32.828Z,0
2017-12-10T05:06:31.424Z,0
2017-12-10T05:07:30.522Z,0
2017-12-10T05:08:29.433Z,0
2017-12-10T05:09:28.430Z,0
2017-12-10T05:10:27.739Z,0
2017-12-10T05:11:26.545Z,0
2017-12-10T05:12:25.546Z,0
2017-12-10T05:13:24.249Z,0
2017-12-10T05:14:23.452Z,0
2017-12-10T05:15:22.165Z,0
2017-12-10T05:16:21.376Z,0
2017-12-10T05:17:20.181Z,0
2017-12-10T05:18:19.071Z,0
2017-12-10T05:19:18.377Z,0
2017-12-10T05:20:17.215Z,0
2017-12-10T05:21:15.809Z,0
2017-12-10T05:22:15.125Z,0
2017-12-10T05:23:13.728Z,0
2017-12-10T05:24:13.045Z,0
2017-12-10T05:25:11.747Z,0
2017-12-10T05:25:42.267Z,0
2017-12-10T05:26:12.679Z,0
2017-12-10T05:28:08.643Z,0
2017-12-10T05:28:39.064Z,0
2017-12-10T05:30:06.666Z,-0.1
2017-12-10T05:31:05.284Z,-0.1
2017-12-10T05:32:04.601Z,-0.1
2017-12-10T05:33:03.429Z,-0.1
2017-12-10T05:34:02.339Z,-0.1
2017-12-10T05:35:01.432Z,-0.1
2017-12-10T05:36:00.540Z,-0.1
2017-12-10T05:36:31.075Z,-0.1
2017-12-10T05:37:01.704Z,-0.1
2017-12-10T05:37:32.347Z,-0.1
2017-12-10T05:38:57.433Z,-0.1
2017-12-10T05:39:56.348Z,-0.1
2017-12-10T05:40:55.153Z,-0.1
2017-12-10T05:41:53.972Z,-0.2
2017-12-10T05:42:52.668Z,-0.2
2017-12-10T05:43:51.651Z,-0.2
2017-12-10T05:44:50.960Z,-0.2
2017-12-10T05:45:49.875Z,-0.2
2017-12-10T05:46:48.797Z,-0.2
2017-12-10T05:47:47.610Z,-0.2
2017-12-10T05:48:46.529Z,-0.2
2017-12-10T05:49:45.850Z,-0.2
2017-12-10T05:50:44.663Z,-0.2
2017-12-10T05:51:43.467Z,-0.2
2017-12-10T05:52:42.683Z,-0.2
2017-12-10T05:53:41.281Z,-0.2
2017-12-10T05:54:40.596Z,-0.2
2017-12-10T05:55:39.191Z,-0.2
2017-12-10T05:56:38.298Z,-0.2
2017-12-10T05:57:37.505Z,-0.2
2017-12-10T05:58:36.207Z,-0.3
2017-12-10T05:59:35.019Z,-0.3
2017-12-10T06:00:34.232Z,-0.3
2017-12-10T06:01:32.826Z,-0.3
2017-12-10T06:02:31.941Z,-0.3
2017-12-10T06:03:30.860Z,-0.3
2017-12-10T06:04:29.975Z,-0.3
2017-12-10T06:05:28.878Z,-0.3
2017-12-10T06:06:27.686Z,-0.3
2017-12-10T06:07:26.897Z,-0.4
2017-12-10T06:08:25.707Z,-0.4
2017-12-10T06:09:24.556Z,-0.4
2017-12-10T06:10:23.544Z,-0.4
2017-12-10T06:11:22.640Z,-0.4
2017-12-10T06:12:21.449Z,-0.4
2017-12-10T06:13:20.666Z,-0.4
2017-12-10T06:14:19.370Z,-0.5
2017-12-10T06:15:18.182Z,-0.4
2017-12-10T06:16:17.384Z,-0.4
2017-12-10T06:16:48.029Z,-0.4
2017-12-10T06:18:15.028Z,-0.4
2017-12-10T06:19:14.342Z,-0.4
2017-12-10T06:20:13.149Z,-0.4
2017-12-10T06:21:11.975Z,-0.4
2017-12-10T06:22:11.191Z,-0.4
2017-12-10T06:23:10.002Z,-0.4
2017-12-10T06:24:08.710Z,-0.4
2017-12-10T06:25:07.920Z,-0.4
2017-12-10T06:26:06.851Z,-0.4
2017-12-10T06:27:05.451Z,-0.5
2017-12-10T06:28:04.825Z,-0.5
2017-12-10T06:29:03.523Z,-0.5
2017-12-10T06:30:02.729Z,-0.5
2017-12-10T06:31:01.322Z,-0.5
2017-12-10T06:32:00.529Z,-0.5
2017-12-10T06:32:59.122Z,-0.5
2017-12-10T06:33:58.551Z,-0.5
2017-12-10T06:34:57.256Z,-0.5
2017-12-10T06:35:56.169Z,-0.5
2017-12-10T06:36:54.985Z,-0.4
2017-12-10T06:37:54.091Z,-0.4
2017-12-10T06:38:53.391Z,-0.4
2017-12-10T06:39:51.990Z,-0.4
2017-12-10T06:40:51.359Z,-0.4
2017-12-10T06:41:50.060Z,-0.4
2017-12-10T06:42:48.986Z,-0.3
2017-12-10T06:43:47.689Z,-0.3
2017-12-10T06:44:46.613Z,-0.3
2017-12-10T06:45:45.603Z,-0.3
2017-12-10T06:46:44.419Z,-0.3
2017-12-10T06:47:43.725Z,-0.3
2017-12-10T06:48:42.324Z,-0.3
2017-12-10T06:49:41.532Z,-0.3
2017-12-10T06:50:40.441Z,-0.3
2017-12-10T06:51:39.252Z,-0.3
2017-12-10T06:52:38.363Z,-0.3
2017-12-10T06:53:37.361Z,-0.3
2017-12-10T06:54:36.586Z,-0.3
2017-12-10T06:55:35.286Z,-0.3
2017-12-10T06:56:34.099Z,-0.2
2017-12-10T06:57:33.194Z,-0.2
2017-12-10T06:58:32.187Z,-0.2
2017-12-10T06:59:30.888Z,-0.2
2017-12-10T07:00:29.704Z,-0.2
2017-12-10T07:01:29.122Z,-0.2
2017-12-10T07:02:28.032Z,-0.2
2017-12-10T07:03:26.627Z,-0.2
2017-12-10T07:04:25.837Z,-0.2
2017-12-10T07:05:24.636Z,-0.2
2017-12-10T07:06:23.445Z,-0.2
2017-12-10T07:08:21.706Z,-0.1
2017-12-10T07:09:20.602Z,-0.1
2017-12-10T07:10:19.699Z,-0.1
2017-12-10T07:10:50.223Z,-0.1
2017-12-10T07:11:20.847Z,-0.1
2017-12-10T07:11:51.088Z,-0.1
2017-12-10T07:12:21.728Z,-0.1
2017-12-10T07:12:52.245Z,-0.1
2017-12-10T07:14:15.111Z,-0.1
2017-12-10T07:15:14.325Z,-0.1
2017-12-10T07:16:13.314Z,-0.1
2017-12-10T07:17:12.132Z,-0.1
2017-12-10T07:18:11.057Z,-0.1
2017-12-10T07:19:10.277Z,-0.1
2017-12-10T07:20:09.239Z,-0.1
2017-12-10T07:21:08.062Z,-0.1
2017-12-10T07:22:06.659Z,-0.1
2017-12-10T07:23:05.758Z,-0.1
2017-12-10T07:24:04.750Z,-0.1
2017-12-10T07:25:03.557Z,-0.1
2017-12-10T07:26:02.765Z,-0.1
2017-12-10T07:27:01.366Z,0
2017-12-10T07:28:00.574Z,-0.1
2017-12-10T07:28:59.173Z,-0.1
2017-12-10T07:30:57.268Z,-0.1
2017-12-10T07:31:56.365Z,0
2017-12-10T07:32:55.075Z,-0.1
2017-12-10T07:33:54.293Z,-0.1
2017-12-10T07:34:53.107Z,0
2017-12-10T07:35:23.518Z,0
2017-12-10T07:35:54.039Z,0
2017-12-10T07:36:51.125Z,0
2017-12-10T07:37:49.837Z,-0.1
2017-12-10T07:38:49.043Z,0
2017-12-10T07:39:47.645Z,0
2017-12-10T07:40:47.060Z,-0.1
2017-12-10T07:41:45.765Z,0
2017-12-10T07:42:45.112Z,0
2017-12-10T07:43:43.911Z,0
2017-12-10T07:44:42.718Z,0
2017-12-10T07:46:40.309Z,0
2017-12-10T07:47:39.517Z,0
2017-12-10T07:48:38.440Z,0
2017-12-10T07:49:37.445Z,0
2017-12-10T07:50:36.452Z,0
2017-12-10T07:51:06.860Z,0
2017-12-10T07:51:37.379Z,0
2017-12-10T07:52:08.015Z,0
2017-12-10T07:52:38.636Z,0
2017-12-10T07:53:09.054Z,0
2017-12-10T07:54:32.025Z,0
2017-12-10T07:56:30.107Z,0
2017-12-10T07:57:29.025Z,0
2017-12-10T07:58:28.130Z,0
2017-12-10T07:59:27.047Z,0
2017-12-10T08:00:25.643Z,0
2017-12-10T08:01:24.947Z,0
2017-12-10T08:02:23.885Z,0
2017-12-10T08:03:22.597Z,0
2017-12-10T08:04:21.656Z,0
2017-12-10T08:05:20.967Z,0
2017-12-10T08:06:19.777Z,0
2017-12-10T08:07:18.264Z,0
2017-12-10T08:08:17.469Z,0
2017-12-10T08:09:16.686Z,0
2017-12-10T08:10:15.496Z,0
2017-12-10T08:11:14.312Z,0
2017-12-10T08:12:13.424Z,0
2017-12-10T08:13:12.232Z,0
2017-12-10T08:14:10.937Z,0
2017-12-10T08:15:10.151Z,0
2017-12-10T08:16:08.965Z,0
2017-12-10T08:17:08.271Z,0.1
2017-12-10T08:18:06.978Z,0
2017-12-10T08:19:06.181Z,0
2017-12-10T08:20:04.877Z,0
2017-12-10T08:21:03.875Z,0.1
2017-12-10T08:22:02.976Z,0.1
2017-12-10T08:23:01.679Z,0.1
2017-12-10T08:24:00.883Z,0.1
2017-12-10T08:24:59.602Z,0.1
2017-12-10T08:25:58.806Z,0.1
2017-12-10T08:26:57.735Z,0.1
2017-12-10T08:28:55.424Z,0.1
2017-12-10T08:29:54.738Z,0.1
2017-12-10T08:30:53.554Z,0.1
2017-12-10T08:31:52.395Z,0.1
2017-12-10T08:32:51.302Z,0.2
2017-12-10T08:33:22.035Z,0.2
2017-12-10T08:33:52.662Z,0.2
2017-12-10T08:34:22.904Z,0.2
2017-12-10T08:34:53.317Z,0.2
2017-12-10T08:35:48.098Z,0.2
2017-12-10T08:36:47.298Z,0.2
2017-12-10T08:37:45.895Z,0.2
2017-12-10T08:39:44.087Z,0.2
2017-12-10T08:40:43.308Z,0.2
2017-12-10T08:41:42.222Z,0.2
2017-12-10T08:42:40.823Z,0.3
2017-12-10T08:43:40.146Z,0.2
2017-12-10T08:44:38.841Z,0.2
2017-12-10T08:45:37.653Z,0.2
2017-12-10T08:46:36.659Z,0.2
2017-12-10T08:47:35.858Z,0.2
2017-12-10T08:48:34.668Z,0.2
2017-12-10T08:49:33.495Z,0.3
2017-12-10T08:50:32.820Z,0.3
2017-12-10T08:51:31.739Z,0.3
2017-12-10T08:52:30.560Z,0.3
2017-12-10T08:53:29.481Z,0.3
2017-12-10T08:54:28.188Z,0.3
2017-12-10T08:55:27.396Z,0.3
2017-12-10T08:56:26.120Z,0.3
2017-12-10T08:57:25.118Z,0.3
2017-12-10T08:58:24.325Z,0.3
2017-12-10T08:59:23.029Z,0.3
2017-12-10T09:00:22.456Z,0.3
2017-12-10T09:01:21.260Z,0.3
2017-12-10T09:02:19.959Z,0.3
2017-12-10T09:03:19.179Z,0.3
2017-12-10T09:04:17.883Z,0.3
2017-12-10T09:05:17.095Z,0.3
2017-12-10T09:06:15.806Z,0.4
2017-12-10T09:07:14.725Z,0.4
2017-12-10T09:07:45.138Z,0.4
2017-12-10T09:08:15.709Z,0.4
2017-12-10T09:08:46.332Z,0.4
2017-12-10T09:10:11.496Z,0.4
2017-12-10T09:11:10.661Z,0.4
2017-12-10T09:12:09.498Z,0.4
2017-12-10T09:13:08.806Z,0.4
2017-12-10T09:14:07.514Z,0.4
2017-12-10T09:15:06.724Z,0.4
2017-12-10T09:16:05.654Z,0.4
2017-12-10T09:17:04.464Z,0.4
2017-12-10T09:18:03.335Z,0.4
2017-12-10T09:19:02.643Z,0.4
2017-12-10T09:20:01.455Z,0.4
2017-12-10T09:21:00.175Z,0.5
2017-12-10T09:21:59.099Z,0.5
2017-12-10T09:22:58.204Z,0.5
2017-12-10T09:23:57.007Z,0.5
2017-12-10T09:24:56.307Z,0.5
2017-12-10T09:25:55.015Z,0.5
2017-12-10T09:26:54.222Z,0.5
2017-12-10T09:27:52.820Z,0.5
2017-12-10T09:28:52.140Z,0.6
2017-12-10T09:29:50.841Z,0.6
2017-12-10T09:30:50.068Z,0.5
2017-12-10T09:31:48.772Z,0.6
2017-12-10T09:32:47.758Z,0.6
2017-12-10T09:33:46.963Z,0.6
2017-12-10T09:34:45.937Z,0.6
2017-12-10T09:35:44.798Z,0.6
2017-12-10T09:36:43.606Z,0.6
2017-12-10T09:37:42.707Z,0.6
2017-12-10T09:38:41.514Z,0.6
2017-12-10T09:39:40.826Z,0.6
2017-12-10T09:40:39.419Z,0.6
2017-12-10T09:41:38.387Z,0.6
2017-12-10T09:42:37.530Z,0.6
2017-12-10T09:43:36.351Z,0.6
2017-12-10T09:44:35.465Z,0.6
2017-12-10T09:45:34.170Z,0.7
2017-12-10T09:46:33.081Z,0.7
2017-12-10T09:47:03.393Z,0.7
2017-12-10T09:47:34.132Z,0.7
2017-12-10T09:48:04.758Z,0.7
2017-12-10T09:48:35.172Z,0.7
2017-12-10T09:49:05.405Z,0.7
2017-12-10T09:49:36.027Z,0.7
2017-12-10T09:50:06.442Z,0.7
2017-12-10T09:50:36.958Z,0.7
2017-12-10T09:51:07.368Z,0.7
2017-12-10T09:52:27.210Z,0.7
2017-12-10T09:53:25.810Z,0.7
2017-12-10T09:55:23.795Z,0.7
2017-12-10T09:56:22.668Z,0.7
2017-12-10T09:57:21.664Z,0.7
2017-12-10T09:58:20.658Z,0.7
2017-12-10T09:59:20.095Z,0.7
2017-12-10T09:59:50.616Z,0.7
2017-12-10T10:00:20.862Z,0.7
2017-12-10T10:00:50.985Z,0.7
2017-12-10T10:02:16.885Z,0.7
2017-12-10T10:03:15.700Z,0.7
2017-12-10T10:04:14.516Z,0.7
2017-12-10T10:05:13.217Z,0.7
2017-12-10T10:06:12.425Z,0.7
2017-12-10T10:07:11.528Z,0.7
2017-12-10T10:08:10.236Z,0.7
2017-12-10T10:09:09.562Z,0.7
2017-12-10T10:10:08.269Z,0.7
2017-12-10T10:11:07.267Z,0.7
2017-12-10T10:12:06.264Z,0.8
2017-12-10T10:13:05.579Z,0.8
2017-12-10T10:14:04.177Z,0.8
2017-12-10T10:15:03.386Z,0.8
2017-12-10T10:16:02.199Z,0.8
2017-12-10T10:17:01.415Z,0.8
2017-12-10T10:18:00.223Z,0.8
2017-12-10T10:19:57.815Z,0.8
2017-12-10T10:20:57.014Z,0.8
2017-12-10T10:21:55.937Z,0.8
2017-12-10T10:22:54.652Z,0.8
2017-12-10T10:23:53.961Z,0.8
2017-12-10T10:24:53.067Z,0.8
2017-12-10T10:25:51.839Z,0.8
2017-12-10T10:26:50.652Z,0.9
2017-12-10T10:27:49.964Z,0.9
2017-12-10T10:28:20.376Z,0.9
2017-12-10T10:28:51.004Z,0.9
2017-12-10T10:29:21.639Z,0.9
2017-12-10T10:29:52.164Z,1
2017-12-10T10:30:46.844Z,1
2017-12-10T10:31:17.369Z,1
2017-12-10T10:31:47.774Z,1.1
2017-12-10T10:32:44.568Z,1.1
2017-12-10T10:33:43.502Z,1.1
2017-12-10T10:34:42.716Z,1.1
2017-12-10T10:35:41.532Z,1
2017-12-10T10:36:40.345Z,1
2017-12-10T10:37:39.269Z,1
2017-12-10T10:38:38.701Z,1
2017-12-10T10:39:08.828Z,1
2017-12-10T10:39:39.605Z,1.1
2017-12-10T10:40:09.835Z,1.1
2017-12-10T10:41:35.324Z,1.1
2017-12-10T10:42:34.038Z,1.1
2017-12-10T10:43:33.241Z,1.1
2017-12-10T10:44:32.164Z,1.1
2017-12-10T10:45:31.097Z,1.1
2017-12-10T10:46:30.409Z,1.2
2017-12-10T10:47:29.224Z,1.2
2017-12-10T10:48:27.921Z,1.2
2017-12-10T10:49:27.017Z,1.2
2017-12-10T10:50:26.224Z,1.2
2017-12-10T10:51:25.035Z,1.2
2017-12-10T10:55:20.621Z,1.3
2017-12-10T10:56:19.831Z,1.3
2017-12-10T10:57:18.739Z,1.2
2017-12-10T10:58:17.619Z,1.2
2017-12-10T10:59:16.423Z,1.3
2017-12-10T11:00:15.645Z,1.3
2017-12-10T11:01:14.972Z,1.2
2017-12-10T11:02:13.562Z,1.2
2017-12-10T11:05:10.419Z,1.1
2017-12-10T11:06:09.225Z,1.1
2017-12-10T11:07:08.642Z,1.1
2017-12-10T11:08:07.748Z,1.1
2017-12-10T11:09:06.560Z,1.1
2017-12-10T11:10:05.155Z,1.1
2017-12-10T11:11:04.364Z,1.1
2017-12-10T11:12:03.174Z,1.1
2017-12-10T11:13:02.388Z,1.1
2017-12-10T11:14:01.381Z,1.1
2017-12-10T11:15:59.264Z,1
2017-12-10T11:16:58.400Z,1.1
2017-12-10T11:17:56.892Z,1
2017-12-10T11:18:56.216Z,1
2017-12-10T11:19:55.018Z,1
2017-12-10T11:21:53.257Z,1
2017-12-10T11:22:23.665Z,1
2017-12-10T11:22:54.399Z,1
2017-12-10T11:23:50.984Z,1.1
2017-12-10T11:24:50.127Z,1.1
2017-12-10T11:25:20.630Z,1.1
2017-12-10T12:45:25.336Z,0.7
2017-12-10T13:31:36.757Z,0.6
2017-12-10T13:32:35.754Z,0.6
2017-12-10T13:33:35.062Z,0.6
2017-12-10T13:34:33.977Z,0.6
2017-12-10T13:35:04.496Z,0.6
2017-12-10T13:35:35.014Z,0.6
2017-12-10T13:36:05.642Z,0.6
2017-12-10T13:38:29.571Z,0.6
2017-12-10T13:39:28.777Z,0.6
2017-12-10T13:40:27.375Z,0.6
2017-12-10T13:41:26.593Z,0.6
2017-12-10T13:42:25.403Z,0.6
2017-12-10T13:43:24.398Z,0.6
2017-12-10T13:44:23.513Z,0.6
2017-12-10T13:45:22.360Z,0.6
2017-12-10T13:45:52.603Z,0.6
2017-12-10T13:46:23.020Z,0.6
2017-12-10T16:29:27.086Z,-1.5
2017-12-10T16:30:26.193Z,-1.5
2017-12-10T16:31:25.288Z,-1.5
2017-12-10T16:32:23.988Z,-1.5
2017-12-10T16:34:21.970Z,-1.5
2017-12-10T16:35:20.353Z,-1.5
2017-12-10T16:36:19.790Z,-1.5
2017-12-10T16:37:18.289Z,-1.5
2017-12-10T16:38:17.280Z,-1.5
2017-12-10T16:39:16.705Z,-1.5
2017-12-10T16:41:14.288Z,-1.5
2017-12-10T16:42:13.399Z,-1.5
2017-12-10T16:43:11.992Z,-1.5
2017-12-10T16:44:10.982Z,-1.5
2017-12-10T16:45:10.302Z,-1.5
2017-12-10T16:46:08.804Z,-1.5
2017-12-10T16:47:08.025Z,-1.5
2017-12-10T16:48:07.240Z,-1.5
2017-12-10T16:49:06.064Z,-1.5
2017-12-10T16:51:03.757Z,-1.5
2017-12-10T16:52:02.568Z,-1.5
2017-12-10T16:53:01.678Z,-1.5
2017-12-10T16:54:00.482Z,-1.5
2017-12-10T16:54:59.684Z,-1.5
2017-12-10T16:55:58.602Z,-1.4
2017-12-10T16:56:57.302Z,-1.4
2017-12-10T16:57:56.506Z,-1.4
2017-12-10T16:58:55.490Z,-1.4
2017-12-10T16:59:54.413Z,-1.4
2017-12-10T17:00:53.227Z,-1.4
2017-12-10T17:01:52.150Z,-1.4
2017-12-10T17:02:50.855Z,-1.4
2017-12-10T17:03:49.765Z,-1.4
2017-12-10T17:04:48.974Z,-1.4
2017-12-10T17:05:19.304Z,-1.4
2017-12-10T17:05:49.454Z,-1.4
2017-12-10T17:06:20.093Z,-1.4
2017-12-10T17:07:45.578Z,-1.4
2017-12-10T17:08:44.683Z,-1.4
2017-12-10T17:09:43.280Z,-1.4
2017-12-10T17:10:42.487Z,-1.4
2017-12-10T17:11:41.580Z,-1.4
2017-12-10T17:12:40.392Z,-1.4
2017-12-10T17:13:39.203Z,-1.4
2017-12-10T17:15:37.388Z,-1.4
2017-12-10T17:16:07.755Z,-1.4
2017-12-10T17:16:38.375Z,-1.4
2017-12-10T17:17:08.897Z,-1.4
2017-12-10T17:18:33.979Z,-1.4
2017-12-10T17:19:32.888Z,-1.4
2017-12-10T17:20:31.811Z,-1.3
2017-12-10T17:21:31.121Z,-1.3
2017-12-10T17:22:29.834Z,-1.3
2017-12-10T17:23:28.718Z,-1.3
2017-12-10T17:25:26.696Z,-1.2
2017-12-10T17:26:25.585Z,-1.2
2017-12-10T17:27:24.183Z,-1.2
2017-12-10T17:28:23.600Z,-1.2
2017-12-10T17:29:22.307Z,-1.2
2017-12-10T17:30:21.228Z,-1.2
2017-12-10T17:31:20.321Z,-1.1
2017-12-10T17:32:19.124Z,-1.1
2017-12-10T17:33:17.944Z,-1.1
2017-12-10T17:34:17.081Z,-1.1
2017-12-10T17:35:15.672Z,-1.1
